createdAt,value
2019-01-12T00:00:40.499Z,0
2019-01-12T00:01:50.646Z,0
2019-01-12T00:03:00.759Z,0
2019-01-12T00:04:10.876Z,0
2019-01-12T00:05:20.995Z,0
2019-01-12T00:06:31.148Z,0
2019-01-12T00:07:40.999Z,0
2019-01-12T00:08:51.312Z,0
2019-01-12T00:10:01.447Z,0
2019-01-12T00:11:11.576Z,0
2019-01-12T00:12:21.696Z,0
2019-01-12T00:13:31.820Z,0
2019-01-12T00:14:41.920Z,0
2019-01-12T00:15:52.072Z,0
2019-01-12T00:17:02.190Z,0
2019-01-12T00:18:12.314Z,0
2019-01-12T00:19:22.432Z,0
2019-01-12T00:20:32.556Z,0
2019-01-12T00:21:42.687Z,0
2019-01-12T00:22:52.295Z,0
2019-01-12T00:24:02.401Z,0
2019-01-12T00:25:12.528Z,0
2019-01-12T00:26:22.660Z,0
2019-01-12T00:27:32.763Z,0
2019-01-12T00:28:42.861Z,0
2019-01-12T00:29:52.986Z,0
2019-01-12T00:31:03.099Z,0
2019-01-12T00:32:13.231Z,0
2019-01-12T00:33:23.339Z,0
2019-01-12T00:34:33.461Z,0
2019-01-12T00:35:43.273Z,0
2019-01-12T00:36:53.383Z,0
2019-01-12T00:38:03.531Z,0
2019-01-12T00:39:13.659Z,0
2019-01-12T00:40:23.512Z,0
2019-01-12T00:41:33.616Z,0
2019-01-12T00:42:43.726Z,0
2019-01-12T00:43:53.835Z,0
2019-01-12T00:45:03.947Z,0
2019-01-12T00:46:13.784Z,0
2019-01-12T00:47:23.938Z,0
2019-01-12T00:48:34.064Z,0
2019-01-12T00:49:43.931Z,0
2019-01-12T00:50:54.050Z,0
2019-01-12T00:52:04.148Z,0
2019-01-12T00:53:14.254Z,0
2019-01-12T00:54:24.367Z,0
2019-01-12T00:55:34.476Z,0
2019-01-12T00:56:44.602Z,0
2019-01-12T00:57:54.716Z,0
2019-01-12T00:59:04.836Z,0
2019-01-12T01:00:14.717Z,0
2019-01-12T01:01:24.838Z,0
2019-01-12T01:02:34.956Z,0
2019-01-12T01:03:45.088Z,0
2019-01-12T01:04:55.204Z,0
2019-01-12T01:06:05.328Z,0
2019-01-12T01:07:15.424Z,0
2019-01-12T01:08:25.535Z,0
2019-01-12T01:09:35.649Z,0
2019-01-12T01:10:45.752Z,0
2019-01-12T01:11:55.862Z,0
2019-01-12T01:13:06.210Z,0
2019-01-12T01:14:16.327Z,0
2019-01-12T01:15:26.437Z,0
2019-01-12T01:16:36.574Z,0
2019-01-12T01:17:46.688Z,0
2019-01-12T01:18:56.789Z,0
2019-01-12T01:20:06.644Z,0
2019-01-12T01:21:16.773Z,0
2019-01-12T01:22:26.888Z,0
2019-01-12T01:23:37.003Z,0
2019-01-12T01:24:52.926Z,0
2019-01-12T01:26:03.062Z,0
2019-01-12T01:27:13.155Z,0
2019-01-12T01:28:22.999Z,0
2019-01-12T01:29:33.101Z,0
2019-01-12T01:30:43.206Z,0
2019-01-12T01:31:53.328Z,0
2019-01-12T01:33:03.680Z,0
2019-01-12T01:34:13.830Z,0
2019-01-12T01:35:23.960Z,0
2019-01-12T01:36:34.090Z,0
2019-01-12T01:37:44.187Z,0
2019-01-12T01:38:54.289Z,0
2019-01-12T01:40:04.496Z,0
2019-01-12T01:41:14.601Z,0
2019-01-12T01:42:24.704Z,0
2019-01-12T01:43:34.312Z,0
2019-01-12T01:44:44.448Z,0
2019-01-12T01:45:54.615Z,0
2019-01-12T01:47:04.754Z,0
2019-01-12T01:48:14.857Z,0
2019-01-12T01:49:24.967Z,0
2019-01-12T01:50:35.133Z,0
2019-01-12T01:51:45.244Z,0
2019-01-12T01:52:55.719Z,0
2019-01-12T01:54:05.481Z,0
2019-01-12T01:55:15.596Z,0
2019-01-12T01:56:25.458Z,0
2019-01-12T01:57:35.578Z,0
2019-01-12T01:58:45.695Z,0
2019-01-12T01:59:55.804Z,0
2019-01-12T02:01:05.904Z,0
2019-01-12T02:02:16.024Z,0
2019-01-12T02:03:26.147Z,0
2019-01-12T02:04:36.256Z,0
2019-01-12T02:05:46.404Z,0
2019-01-12T02:06:56.513Z,0
2019-01-12T02:08:06.816Z,0
2019-01-12T02:09:16.911Z,0
2019-01-12T02:10:27.043Z,0
2019-01-12T02:11:37.151Z,0
2019-01-12T02:12:47.266Z,0
2019-01-12T02:13:57.361Z,0
2019-01-12T02:15:07.471Z,0
2019-01-12T02:16:17.775Z,0
2019-01-12T02:17:27.898Z,0
2019-01-12T02:18:38.072Z,0
2019-01-12T02:19:48.174Z,0
2019-01-12T02:20:58.315Z,0
2019-01-12T02:22:08.425Z,0
2019-01-12T02:23:18.280Z,0
2019-01-12T02:24:28.383Z,0
2019-01-12T02:25:38.556Z,0
2019-01-12T02:26:48.671Z,0
2019-01-12T02:27:58.775Z,0
2019-01-12T02:29:08.899Z,0
2019-01-12T02:30:19.023Z,0
2019-01-12T02:31:29.145Z,0
2019-01-12T02:32:39.263Z,0
2019-01-12T02:33:49.393Z,0
2019-01-12T02:34:59.536Z,0
2019-01-12T02:36:09.670Z,0
2019-01-12T02:37:19.778Z,0
2019-01-12T02:38:29.923Z,0
2019-01-12T02:39:39.811Z,0
2019-01-12T02:40:49.934Z,0
2019-01-12T02:42:00.062Z,0
2019-01-12T02:43:10.174Z,0
2019-01-12T02:44:20.276Z,0
2019-01-12T02:45:30.402Z,0
2019-01-12T02:46:40.503Z,0
2019-01-12T02:47:50.615Z,0
2019-01-12T02:49:01.748Z,0
2019-01-12T02:50:11.594Z,0
2019-01-12T02:51:21.692Z,0
2019-01-12T02:52:31.816Z,0
2019-01-12T02:53:41.938Z,0
2019-01-12T02:54:52.047Z,0
2019-01-12T02:56:02.216Z,0
2019-01-12T02:57:12.318Z,0
2019-01-12T02:58:23.255Z,0
2019-01-12T02:59:33.351Z,0
2019-01-12T03:00:43.464Z,0
2019-01-12T03:01:53.580Z,0
2019-01-12T03:03:03.710Z,0
2019-01-12T03:04:13.838Z,0
2019-01-12T03:05:23.934Z,0
2019-01-12T03:06:34.072Z,0
2019-01-12T03:07:43.872Z,0
2019-01-12T03:08:53.976Z,0
2019-01-12T03:10:04.098Z,0
2019-01-12T03:11:14.210Z,0
2019-01-12T03:12:24.323Z,0
2019-01-12T03:13:34.438Z,0
2019-01-12T03:14:44.554Z,0
2019-01-12T03:15:54.420Z,0
2019-01-12T03:17:04.538Z,0
2019-01-12T03:18:14.647Z,0
2019-01-12T03:19:24.751Z,0
2019-01-12T03:20:34.508Z,0
2019-01-12T03:21:44.676Z,0
2019-01-12T03:22:54.813Z,0
2019-01-12T03:24:04.926Z,0
2019-01-12T03:25:22.708Z,0
2019-01-12T03:26:32.821Z,0
2019-01-12T03:27:42.932Z,0
2019-01-12T03:28:52.821Z,0
2019-01-12T03:30:02.961Z,0
2019-01-12T03:31:13.109Z,0
2019-01-12T03:32:23.259Z,0
2019-01-12T03:33:33.453Z,0
2019-01-12T03:34:43.564Z,0
2019-01-12T03:35:53.680Z,0
2019-01-12T03:37:03.786Z,0
2019-01-12T03:38:13.886Z,0
2019-01-12T03:39:24.036Z,0
2019-01-12T03:40:34.147Z,0
2019-01-12T03:41:44.260Z,0
2019-01-12T03:42:54.388Z,0
2019-01-12T03:44:04.482Z,0
2019-01-12T03:45:14.601Z,0
2019-01-12T03:46:24.448Z,0
2019-01-12T03:47:34.548Z,0
2019-01-12T03:48:44.666Z,0
2019-01-12T03:49:54.782Z,0
2019-01-12T03:51:04.642Z,0
2019-01-12T03:52:14.758Z,0
2019-01-12T03:53:24.638Z,0
2019-01-12T03:54:34.735Z,0
2019-01-12T03:55:44.837Z,0
2019-01-12T03:56:54.950Z,0
2019-01-12T03:58:05.054Z,0
2019-01-12T03:59:15.175Z,0
2019-01-12T04:00:25.033Z,0
2019-01-12T04:01:35.134Z,0
2019-01-12T04:02:45.231Z,0
2019-01-12T04:03:55.334Z,0
2019-01-12T04:05:05.427Z,0
2019-01-12T04:06:15.527Z,0
2019-01-12T04:07:25.646Z,0
2019-01-12T04:08:35.771Z,0
2019-01-12T04:09:45.868Z,0
2019-01-12T04:10:55.962Z,0
2019-01-12T04:12:06.123Z,0
2019-01-12T04:13:16.223Z,0
2019-01-12T04:14:26.349Z,0
2019-01-12T04:15:36.460Z,0
2019-01-12T04:16:46.564Z,0
2019-01-12T04:17:56.669Z,0
2019-01-12T04:19:06.792Z,0
2019-01-12T04:20:16.907Z,0
2019-01-12T04:21:27.033Z,0
2019-01-12T04:22:37.135Z,0
2019-01-12T04:23:47.272Z,0
2019-01-12T04:24:57.364Z,0
2019-01-12T04:26:07.477Z,0
2019-01-12T04:27:17.580Z,0
2019-01-12T04:28:27.704Z,0
2019-01-12T04:29:37.812Z,0
2019-01-12T04:30:47.661Z,0
2019-01-12T04:31:57.780Z,0
2019-01-12T04:33:07.891Z,0
2019-01-12T04:34:18.004Z,0
2019-01-12T04:35:28.104Z,0
2019-01-12T04:36:38.225Z,0
2019-01-12T04:37:48.356Z,0
2019-01-12T04:38:58.456Z,0
2019-01-12T04:40:08.572Z,0
2019-01-12T04:41:18.719Z,0
2019-01-12T04:42:28.829Z,0
2019-01-12T04:43:38.940Z,0
2019-01-12T04:44:49.057Z,0
2019-01-12T04:45:59.166Z,0
2019-01-12T04:47:09.408Z,0
2019-01-12T04:48:19.724Z,0
2019-01-12T04:49:29.930Z,0
2019-01-12T04:50:40.049Z,0
2019-01-12T04:51:50.162Z,0
2019-01-12T04:53:00.280Z,0
2019-01-12T04:54:11.378Z,0
2019-01-12T04:55:21.240Z,0
2019-01-12T04:56:31.372Z,0
2019-01-12T04:57:41.582Z,0
2019-01-12T04:58:51.683Z,0
2019-01-12T05:00:01.823Z,0
2019-01-12T05:01:11.939Z,0
2019-01-12T05:02:22.052Z,0
2019-01-12T05:03:32.156Z,0
2019-01-12T05:04:42.294Z,0
2019-01-12T05:05:52.439Z,0
2019-01-12T05:07:02.562Z,0
2019-01-12T05:08:12.676Z,0
2019-01-12T05:09:22.778Z,0
2019-01-12T05:10:32.883Z,0
2019-01-12T05:11:42.990Z,0
2019-01-12T05:12:53.098Z,0
2019-01-12T05:14:03.224Z,0
2019-01-12T05:15:13.319Z,0
2019-01-12T05:16:23.423Z,0
2019-01-12T05:17:33.996Z,0
2019-01-12T05:18:44.100Z,0
2019-01-12T05:19:53.946Z,0
2019-01-12T05:21:04.053Z,0
2019-01-12T05:22:14.147Z,0
2019-01-12T05:23:24.262Z,0
2019-01-12T05:24:34.368Z,0
2019-01-12T05:25:51.326Z,0
2019-01-12T05:27:01.445Z,0
2019-01-12T05:28:11.556Z,0
2019-01-12T05:29:21.670Z,0
2019-01-12T05:30:31.818Z,0
2019-01-12T05:31:41.922Z,0
2019-01-12T05:32:52.036Z,0
2019-01-12T05:34:02.147Z,0
2019-01-12T05:35:12.274Z,0
2019-01-12T05:36:22.368Z,0
2019-01-12T05:37:32.473Z,0
2019-01-12T05:38:42.576Z,0
2019-01-12T05:39:52.680Z,0
2019-01-12T05:41:02.860Z,0
2019-01-12T05:42:12.725Z,0
2019-01-12T05:43:22.991Z,0
2019-01-12T05:44:33.094Z,0
2019-01-12T05:45:43.198Z,0
2019-01-12T05:46:53.314Z,0
2019-01-12T05:48:03.171Z,0
2019-01-12T05:49:13.285Z,0
2019-01-12T05:50:23.412Z,0
2019-01-12T05:51:33.544Z,0
2019-01-12T05:52:43.654Z,0
2019-01-12T05:53:53.749Z,0
2019-01-12T05:55:03.891Z,0
2019-01-12T05:56:14.000Z,0
2019-01-12T05:57:24.133Z,0
2019-01-12T05:58:34.251Z,0
2019-01-12T05:59:44.347Z,0
2019-01-12T06:00:54.455Z,0
2019-01-12T06:02:04.552Z,0
2019-01-12T06:03:14.666Z,0
2019-01-12T06:04:24.765Z,0
2019-01-12T06:05:34.884Z,0
2019-01-12T06:06:44.977Z,0
2019-01-12T06:07:55.091Z,0
2019-01-12T06:09:05.215Z,0
2019-01-12T06:10:15.311Z,0
2019-01-12T06:11:25.409Z,0
2019-01-12T06:12:35.571Z,0
2019-01-12T06:13:45.787Z,0
2019-01-12T06:14:55.894Z,0
2019-01-12T06:16:06.001Z,0
2019-01-12T06:17:15.853Z,0
2019-01-12T06:18:25.970Z,0
2019-01-12T06:19:36.074Z,0
2019-01-12T06:20:46.179Z,0
2019-01-12T06:21:56.271Z,0
2019-01-12T06:23:06.587Z,0
2019-01-12T06:24:16.710Z,0
2019-01-12T06:25:26.853Z,0
2019-01-12T06:26:36.974Z,0
2019-01-12T06:27:47.097Z,0
2019-01-12T06:28:57.228Z,0
2019-01-12T06:30:08.484Z,0
2019-01-12T06:31:18.804Z,0
2019-01-12T06:32:28.910Z,0
2019-01-12T06:33:39.028Z,0
2019-01-12T06:34:49.145Z,0
2019-01-12T06:35:59.267Z,0
2019-01-12T06:37:09.375Z,0
2019-01-12T06:38:19.539Z,0
2019-01-12T06:39:29.701Z,0
2019-01-12T06:40:39.829Z,0
2019-01-12T06:41:49.969Z,0
2019-01-12T06:43:00.092Z,0
2019-01-12T06:44:10.223Z,0
2019-01-12T06:45:20.093Z,0
2019-01-12T06:46:30.214Z,0
2019-01-12T06:47:40.315Z,0
2019-01-12T06:48:50.439Z,0
2019-01-12T06:50:00.560Z,0
2019-01-12T06:51:10.664Z,0
2019-01-12T06:52:20.759Z,0
2019-01-12T06:53:30.861Z,0
2019-01-12T06:54:40.957Z,0
2019-01-12T06:55:51.133Z,0
2019-01-12T06:57:01.245Z,0
2019-01-12T06:58:11.352Z,0
2019-01-12T06:59:21.111Z,0
2019-01-12T07:00:31.219Z,0
2019-01-12T07:01:41.347Z,0
2019-01-12T07:02:51.471Z,0
2019-01-12T07:04:01.580Z,0
2019-01-12T07:05:11.680Z,0
2019-01-12T07:06:21.789Z,0
2019-01-12T07:07:31.635Z,0
2019-01-12T07:08:41.504Z,0
2019-01-12T07:09:51.602Z,0
2019-01-12T07:11:01.713Z,0
2019-01-12T07:12:11.801Z,0
2019-01-12T07:13:21.939Z,0
2019-01-12T07:14:32.183Z,0
2019-01-12T07:15:42.341Z,0
2019-01-12T07:16:52.436Z,0
2019-01-12T07:18:08.592Z,0
2019-01-12T07:19:18.984Z,5
2019-01-12T07:20:29.114Z,5
2019-01-12T07:21:39.216Z,5
2019-01-12T07:22:49.321Z,5
2019-01-12T07:23:59.457Z,10
2019-01-12T07:25:09.197Z,10
2019-01-12T07:26:24.841Z,10
2019-01-12T07:27:35.094Z,15
2019-01-12T07:28:45.194Z,15
2019-01-12T07:29:55.309Z,15
2019-01-12T07:31:05.443Z,20
2019-01-12T07:32:15.564Z,20
2019-01-12T07:33:25.683Z,15
2019-01-12T07:34:35.811Z,10
2019-01-12T07:35:45.932Z,5
2019-01-12T07:36:56.031Z,10
2019-01-12T07:38:06.151Z,15
2019-01-12T07:39:16.276Z,20
2019-01-12T07:40:26.392Z,25
2019-01-12T07:41:36.529Z,30
2019-01-12T07:42:46.643Z,30
2019-01-12T07:43:56.757Z,30
2019-01-12T07:45:06.933Z,35
2019-01-12T07:46:17.036Z,35
2019-01-12T07:47:27.140Z,35
2019-01-12T07:48:37.246Z,40
2019-01-12T07:49:47.362Z,45
2019-01-12T07:50:57.481Z,45
2019-01-12T07:52:07.600Z,45
2019-01-12T07:53:17.718Z,45
2019-01-12T07:54:27.839Z,45
2019-01-12T07:55:37.946Z,35
2019-01-12T07:56:48.128Z,30
2019-01-12T07:57:58.236Z,30
2019-01-12T07:59:08.340Z,30
2019-01-12T08:00:18.457Z,35
2019-01-12T08:01:28.590Z,35
2019-01-12T08:02:38.687Z,40
2019-01-12T08:03:48.781Z,40
2019-01-12T08:04:58.886Z,50
2019-01-12T08:06:09.009Z,55
2019-01-12T08:07:19.139Z,45
2019-01-12T08:08:29.276Z,45
2019-01-12T08:09:39.385Z,20
2019-01-12T08:10:49.509Z,10
2019-01-12T08:11:59.623Z,15
2019-01-12T08:13:09.782Z,15
2019-01-12T08:14:19.657Z,20
2019-01-12T08:15:29.781Z,20
2019-01-12T08:16:39.902Z,20
2019-01-12T08:17:50.029Z,15
2019-01-12T08:19:00.146Z,20
2019-01-12T08:20:10.286Z,30
2019-01-12T08:21:20.371Z,35
2019-01-12T08:22:30.497Z,45
2019-01-12T08:23:40.626Z,55
2019-01-12T08:24:50.762Z,60
2019-01-12T08:26:00.949Z,60
2019-01-12T08:27:11.082Z,60
2019-01-12T08:28:21.208Z,65
2019-01-12T08:29:31.551Z,70
2019-01-12T08:30:41.751Z,70
2019-01-12T08:31:52.061Z,70
2019-01-12T08:33:02.181Z,65
2019-01-12T08:34:12.304Z,55
2019-01-12T08:35:22.418Z,50
2019-01-12T08:36:32.534Z,45
2019-01-12T08:37:42.647Z,50
2019-01-12T08:38:52.769Z,45
2019-01-12T08:40:02.910Z,45
2019-01-12T08:41:13.011Z,50
2019-01-12T08:42:23.168Z,45
2019-01-12T08:43:33.304Z,35
2019-01-12T08:44:43.432Z,35
2019-01-12T08:45:53.605Z,35
2019-01-12T08:47:03.730Z,45
2019-01-12T08:48:13.885Z,45
2019-01-12T08:49:24.039Z,60
2019-01-12T08:50:34.166Z,65
2019-01-12T08:51:44.316Z,50
2019-01-12T08:52:54.456Z,40
2019-01-12T08:54:04.584Z,35
2019-01-12T08:55:14.725Z,40
2019-01-12T08:56:24.873Z,50
2019-01-12T08:57:34.980Z,85
2019-01-12T08:58:44.748Z,110
2019-01-12T08:59:54.890Z,65
2019-01-12T09:01:05.029Z,45
2019-01-12T09:02:15.152Z,45
2019-01-12T09:03:25.262Z,45
2019-01-12T09:04:43.223Z,40
2019-01-12T09:05:53.504Z,40
2019-01-12T09:07:03.635Z,40
2019-01-12T09:08:13.779Z,35
2019-01-12T09:09:23.912Z,35
2019-01-12T09:10:34.046Z,40
2019-01-12T09:11:44.195Z,35
2019-01-12T09:12:54.337Z,35
2019-01-12T09:14:04.515Z,35
2019-01-12T09:15:14.683Z,35
2019-01-12T09:16:24.855Z,35
2019-01-12T09:17:35.001Z,40
2019-01-12T09:18:45.166Z,45
2019-01-12T09:19:55.290Z,45
2019-01-12T09:21:05.429Z,65
2019-01-12T09:22:15.208Z,60
2019-01-12T09:23:25.341Z,60
2019-01-12T09:24:35.473Z,60
2019-01-12T09:25:45.598Z,50
2019-01-12T09:26:55.738Z,65
2019-01-12T09:28:06.638Z,65
2019-01-12T09:29:16.874Z,75
2019-01-12T09:30:27.044Z,65
2019-01-12T09:31:37.229Z,65
2019-01-12T09:32:47.591Z,85
2019-01-12T09:33:57.761Z,80
2019-01-12T09:35:07.883Z,75
2019-01-12T09:36:18.016Z,50
2019-01-12T09:37:27.899Z,50
2019-01-12T09:38:38.111Z,60
2019-01-12T09:39:47.997Z,65
2019-01-12T09:40:58.109Z,80
2019-01-12T09:42:08.247Z,55
2019-01-12T09:43:18.233Z,45
2019-01-12T09:44:28.380Z,40
2019-01-12T09:45:38.556Z,40
2019-01-12T09:46:48.715Z,45
2019-01-12T09:47:58.838Z,45
2019-01-12T09:49:08.979Z,45
2019-01-12T09:50:19.114Z,75
2019-01-12T09:51:29.259Z,80
2019-01-12T09:52:39.423Z,90
2019-01-12T09:53:49.563Z,125
2019-01-12T09:54:59.873Z,125
2019-01-12T09:56:10.029Z,80
2019-01-12T09:57:20.168Z,90
2019-01-12T09:58:30.334Z,105
2019-01-12T09:59:40.487Z,110
2019-01-12T10:00:50.617Z,110
2019-01-12T10:02:00.766Z,100
2019-01-12T10:03:10.944Z,95
2019-01-12T10:04:21.088Z,100
2019-01-12T10:05:30.966Z,120
2019-01-12T10:06:41.099Z,115
2019-01-12T10:07:51.257Z,95
2019-01-12T10:09:01.430Z,95
2019-01-12T10:10:11.573Z,120
2019-01-12T10:11:21.737Z,105
2019-01-12T10:12:31.887Z,110
2019-01-12T10:13:42.066Z,105
2019-01-12T10:14:51.838Z,85
2019-01-12T10:16:01.981Z,95
2019-01-12T10:17:12.597Z,115
2019-01-12T10:18:22.789Z,130
2019-01-12T10:19:32.692Z,145
2019-01-12T10:20:42.834Z,135
2019-01-12T10:21:53.978Z,120
2019-01-12T10:23:04.136Z,125
2019-01-12T10:24:14.271Z,115
2019-01-12T10:25:24.414Z,120
2019-01-12T10:26:34.557Z,120
2019-01-12T10:27:44.702Z,125
2019-01-12T10:28:54.586Z,115
2019-01-12T10:30:04.720Z,150
2019-01-12T10:31:14.902Z,140
2019-01-12T10:32:25.269Z,130
2019-01-12T10:33:35.398Z,110
2019-01-12T10:34:45.542Z,80
2019-01-12T10:35:55.739Z,60
2019-01-12T10:37:05.756Z,55
2019-01-12T10:38:15.915Z,60
2019-01-12T10:39:27.756Z,60
2019-01-12T10:40:37.933Z,60
2019-01-12T10:41:48.074Z,60
2019-01-12T10:42:58.227Z,60
2019-01-12T10:44:08.385Z,60
2019-01-12T10:45:18.595Z,50
2019-01-12T10:46:28.304Z,45
2019-01-12T10:47:38.208Z,35
2019-01-12T10:48:48.345Z,30
2019-01-12T10:49:58.474Z,25
2019-01-12T10:51:08.627Z,25
2019-01-12T10:52:18.779Z,20
2019-01-12T10:53:28.944Z,20
2019-01-12T10:54:39.088Z,20
2019-01-12T10:55:49.231Z,25
2019-01-12T10:57:05.223Z,30
2019-01-12T10:58:15.584Z,40
2019-01-12T10:59:25.754Z,40
2019-01-12T11:00:35.900Z,40
2019-01-12T11:01:46.074Z,40
2019-01-12T11:02:56.215Z,45
2019-01-12T11:04:06.374Z,45
2019-01-12T11:05:16.508Z,45
2019-01-12T11:06:26.666Z,55
2019-01-12T11:07:36.814Z,45
2019-01-12T11:08:47.005Z,70
2019-01-12T11:09:56.884Z,105
2019-01-12T11:11:07.012Z,125
2019-01-12T11:12:16.899Z,165
2019-01-12T11:13:27.053Z,170
2019-01-12T11:14:37.187Z,125
2019-01-12T11:15:47.083Z,135
2019-01-12T11:16:56.990Z,140
2019-01-12T11:18:07.160Z,160
2019-01-12T11:19:17.290Z,160
2019-01-12T11:20:27.423Z,145
2019-01-12T11:21:37.617Z,155
2019-01-12T11:22:47.800Z,155
2019-01-12T11:23:58.202Z,180
2019-01-12T11:25:08.398Z,210
2019-01-12T11:26:18.535Z,180
2019-01-12T11:27:28.737Z,180
2019-01-12T11:28:38.931Z,175
2019-01-12T11:29:49.787Z,170
2019-01-12T11:30:59.950Z,155
2019-01-12T11:32:10.092Z,175
2019-01-12T11:33:20.261Z,150
2019-01-12T11:34:30.393Z,130
2019-01-12T11:35:40.544Z,120
2019-01-12T11:36:50.709Z,125
2019-01-12T11:38:00.851Z,115
2019-01-12T11:39:10.973Z,125
2019-01-12T11:40:21.125Z,125
2019-01-12T11:41:31.299Z,125
2019-01-12T11:42:41.440Z,100
2019-01-12T11:43:51.554Z,100
2019-01-12T11:45:01.726Z,100
2019-01-12T11:46:11.920Z,90
2019-01-12T11:47:22.099Z,85
2019-01-12T11:48:32.255Z,75
2019-01-12T11:49:42.494Z,70
2019-01-12T11:50:52.635Z,60
2019-01-12T11:52:02.783Z,65
2019-01-12T11:53:12.964Z,70
2019-01-12T11:54:23.095Z,70
2019-01-12T11:55:33.253Z,70
2019-01-12T11:56:43.135Z,80
2019-01-12T11:57:53.323Z,80
2019-01-12T11:59:03.486Z,75
2019-01-12T12:00:13.605Z,75
2019-01-12T12:01:23.784Z,75
2019-01-12T12:02:40.100Z,80
2019-01-12T12:03:50.252Z,85
2019-01-12T12:05:00.412Z,90
2019-01-12T12:06:10.548Z,100
2019-01-12T12:07:20.694Z,105
2019-01-12T12:08:30.837Z,90
2019-01-12T12:09:41.019Z,85
2019-01-12T12:10:51.230Z,80
2019-01-12T12:12:01.583Z,75
2019-01-12T12:13:11.762Z,75
2019-01-12T12:14:21.636Z,80
2019-01-12T12:15:31.781Z,80
2019-01-12T12:16:41.672Z,85
2019-01-12T12:17:51.837Z,80
2019-01-12T12:19:01.955Z,80
2019-01-12T12:20:12.087Z,80
2019-01-12T12:21:22.256Z,60
2019-01-12T12:22:32.428Z,65
2019-01-12T12:23:42.554Z,50
2019-01-12T12:24:52.687Z,55
2019-01-12T12:26:02.819Z,60
2019-01-12T12:27:12.972Z,60
2019-01-12T12:28:23.107Z,45
2019-01-12T12:29:33.273Z,50
2019-01-12T12:30:43.160Z,50
2019-01-12T12:31:53.037Z,45
2019-01-12T12:33:03.175Z,60
2019-01-12T12:34:13.382Z,55
2019-01-12T12:35:23.504Z,50
2019-01-12T12:36:33.633Z,45
2019-01-12T12:37:43.760Z,45
2019-01-12T12:38:53.898Z,45
2019-01-12T12:40:04.061Z,45
2019-01-12T12:41:14.204Z,45
2019-01-12T12:42:24.367Z,45
2019-01-12T12:43:34.501Z,40
2019-01-12T12:44:44.418Z,35
2019-01-12T12:45:54.564Z,30
2019-01-12T12:47:04.805Z,35
2019-01-12T12:48:14.980Z,35
2019-01-12T12:49:25.117Z,35
2019-01-12T12:50:36.252Z,30
2019-01-12T12:51:46.407Z,25
2019-01-12T12:52:56.542Z,25
2019-01-12T12:54:06.694Z,25
2019-01-12T12:55:16.895Z,20
2019-01-12T12:56:26.878Z,20
2019-01-12T12:57:42.672Z,20
2019-01-12T12:58:52.797Z,20
2019-01-12T13:00:02.962Z,40
2019-01-12T13:01:13.083Z,40
2019-01-12T13:02:23.226Z,30
2019-01-12T13:03:33.402Z,30
2019-01-12T13:04:43.609Z,35
2019-01-12T13:05:53.744Z,35
2019-01-12T13:07:03.900Z,35
2019-01-12T13:08:14.070Z,35
2019-01-12T13:09:24.227Z,30
2019-01-12T13:10:35.116Z,35
2019-01-12T13:11:45.254Z,35
2019-01-12T13:12:55.391Z,35
2019-01-12T13:14:05.288Z,30
2019-01-12T13:15:15.609Z,35
2019-01-12T13:16:25.948Z,30
2019-01-12T13:17:36.116Z,30
2019-01-12T13:18:46.283Z,25
2019-01-12T13:19:56.453Z,25
2019-01-12T13:21:06.610Z,25
2019-01-12T13:22:16.810Z,30
2019-01-12T13:23:27.351Z,25
2019-01-12T13:24:37.670Z,25
2019-01-12T13:25:47.937Z,25
2019-01-12T13:26:57.929Z,25
2019-01-12T13:28:08.062Z,25
2019-01-12T13:29:18.219Z,30
2019-01-12T13:30:28.416Z,30
2019-01-12T13:31:38.620Z,30
2019-01-12T13:32:48.786Z,40
2019-01-12T13:33:58.928Z,40
2019-01-12T13:35:09.058Z,45
2019-01-12T13:36:19.201Z,40
2019-01-12T13:37:29.360Z,40
2019-01-12T13:38:39.498Z,40
2019-01-12T13:39:49.672Z,40
2019-01-12T13:40:59.833Z,40
2019-01-12T13:42:10.026Z,45
2019-01-12T13:43:20.171Z,40
2019-01-12T13:44:30.323Z,45
2019-01-12T13:45:40.503Z,40
2019-01-12T13:46:50.686Z,40
2019-01-12T13:48:00.845Z,40
2019-01-12T13:49:11.044Z,40
2019-01-12T13:50:21.253Z,40
2019-01-12T13:51:31.647Z,35
2019-01-12T13:52:41.853Z,35
2019-01-12T13:53:52.031Z,30
2019-01-12T13:55:02.813Z,30
2019-01-12T13:56:12.980Z,30
2019-01-12T13:57:23.320Z,30
2019-01-12T13:58:33.481Z,30
2019-01-12T13:59:43.639Z,30
2019-01-12T14:00:53.796Z,30
2019-01-12T14:02:03.953Z,30
2019-01-12T14:03:13.509Z,30
2019-01-12T14:04:23.649Z,35
2019-01-12T14:05:34.002Z,35
2019-01-12T14:06:44.154Z,45
2019-01-12T14:08:00.959Z,50
2019-01-12T14:09:11.139Z,45
2019-01-12T14:10:21.294Z,40
2019-01-12T14:11:32.447Z,35
2019-01-12T14:12:42.607Z,30
2019-01-12T14:13:52.774Z,30
2019-01-12T14:15:02.926Z,30
2019-01-12T14:16:13.066Z,35
2019-01-12T14:17:23.226Z,35
2019-01-12T14:18:33.407Z,40
2019-01-12T14:19:43.591Z,35
2019-01-12T14:20:53.745Z,35
2019-01-12T14:22:03.954Z,30
2019-01-12T14:23:14.135Z,25
2019-01-12T14:24:24.323Z,30
2019-01-12T14:25:34.572Z,25
2019-01-12T14:26:44.745Z,20
2019-01-12T14:28:01.848Z,20
2019-01-12T14:29:12.027Z,20
2019-01-12T14:30:25.400Z,20
2019-01-12T14:31:35.625Z,25
2019-01-12T14:32:45.495Z,20
2019-01-12T14:33:55.500Z,15
2019-01-12T14:35:05.651Z,15
2019-01-12T14:36:15.778Z,15
2019-01-12T14:37:25.926Z,15
2019-01-12T14:38:36.440Z,15
2019-01-12T14:39:46.617Z,15
2019-01-12T14:40:56.772Z,15
2019-01-12T14:42:06.895Z,15
2019-01-12T14:43:17.051Z,15
2019-01-12T14:44:27.187Z,15
2019-01-12T14:45:37.319Z,15
2019-01-12T14:46:47.490Z,15
2019-01-12T14:47:57.630Z,15
2019-01-12T14:49:07.794Z,10
2019-01-12T14:50:17.926Z,10
2019-01-12T14:51:28.125Z,15
2019-01-12T14:52:38.339Z,15
2019-01-12T14:53:48.540Z,10
2019-01-12T14:54:58.716Z,10
2019-01-12T14:56:08.889Z,5
2019-01-12T14:57:19.049Z,5
2019-01-12T14:58:29.285Z,5
2019-01-12T14:59:39.475Z,5
2019-01-12T15:00:49.779Z,5
2019-01-12T15:02:00.048Z,5
2019-01-12T15:03:09.916Z,5
2019-01-12T15:04:20.147Z,5
2019-01-12T15:05:30.448Z,0
2019-01-12T15:06:40.676Z,5
2019-01-12T15:07:50.719Z,5
2019-01-12T15:09:00.894Z,5
2019-01-12T15:10:10.863Z,0
2019-01-12T15:11:21.052Z,0
2019-01-12T15:12:31.222Z,0
2019-01-12T15:13:41.383Z,0
2019-01-12T15:14:51.575Z,0
2019-01-12T15:16:01.769Z,0
2019-01-12T15:17:11.952Z,0
2019-01-12T15:18:22.167Z,0
2019-01-12T15:19:32.377Z,0
2019-01-12T15:20:42.561Z,0
2019-01-12T15:21:52.732Z,0
2019-01-12T15:23:02.924Z,0
2019-01-12T15:24:13.111Z,0
2019-01-12T15:25:23.304Z,0
2019-01-12T15:26:33.696Z,0
2019-01-12T15:27:43.891Z,0
2019-01-12T15:28:54.081Z,0
2019-01-12T15:30:04.261Z,0
2019-01-12T15:31:14.640Z,0
2019-01-12T15:32:24.434Z,0
2019-01-12T15:33:35.583Z,0
2019-01-12T15:34:45.789Z,0
2019-01-12T15:35:55.996Z,0
2019-01-12T15:37:06.257Z,0
2019-01-12T15:38:16.458Z,0
2019-01-12T15:39:26.606Z,0
2019-01-12T15:40:36.784Z,0
2019-01-12T15:41:46.958Z,0
2019-01-12T15:42:57.123Z,0
2019-01-12T15:44:08.199Z,0
2019-01-12T15:45:18.359Z,0
2019-01-12T15:46:28.483Z,0
2019-01-12T15:47:38.666Z,0
2019-01-12T15:48:48.830Z,0
2019-01-12T15:49:58.972Z,0
2019-01-12T15:51:41.050Z,0
2019-01-12T15:52:52.179Z,0
2019-01-12T15:54:02.368Z,0
2019-01-12T15:55:12.601Z,0
2019-01-12T15:56:22.818Z,0
2019-01-12T15:57:32.782Z,0
2019-01-12T15:58:42.594Z,0
2019-01-12T15:59:52.775Z,0
2019-01-12T16:01:02.943Z,0
2019-01-12T16:02:13.603Z,0
2019-01-12T16:03:23.787Z,0
2019-01-12T16:04:34.012Z,0
2019-01-12T16:05:44.186Z,0
2019-01-12T16:06:54.075Z,0
2019-01-12T16:08:04.229Z,0
2019-01-12T16:09:14.394Z,0
2019-01-12T16:10:24.557Z,0
2019-01-12T16:11:34.962Z,0
2019-01-12T16:12:45.127Z,0
2019-01-12T16:13:55.285Z,0
2019-01-12T16:15:05.452Z,0
2019-01-12T16:16:15.623Z,0
2019-01-12T16:17:25.807Z,0
2019-01-12T16:18:36.016Z,0
2019-01-12T16:19:46.227Z,0
2019-01-12T16:20:56.420Z,0
2019-01-12T16:22:06.591Z,0
2019-01-12T16:23:16.775Z,0
2019-01-12T16:24:27.957Z,0
2019-01-12T16:25:38.988Z,0
2019-01-12T16:26:49.310Z,0
2019-01-12T16:27:59.484Z,0
2019-01-12T16:29:09.672Z,0
2019-01-12T16:30:20.031Z,0
2019-01-12T16:31:30.206Z,0
2019-01-12T16:32:40.386Z,0
2019-01-12T16:33:50.531Z,0
2019-01-12T16:35:00.687Z,0
2019-01-12T16:36:10.851Z,0
2019-01-12T16:37:20.993Z,0
2019-01-12T16:38:31.167Z,0
2019-01-12T16:39:41.090Z,0
2019-01-12T16:40:50.891Z,0
2019-01-12T16:42:01.039Z,0
2019-01-12T16:43:11.227Z,0
2019-01-12T16:44:21.419Z,0
2019-01-12T16:45:31.569Z,0
2019-01-12T16:46:41.746Z,0
2019-01-12T16:47:51.876Z,0
2019-01-12T16:49:02.061Z,0
2019-01-12T16:50:12.215Z,0
2019-01-12T16:51:22.384Z,0
2019-01-12T16:52:32.537Z,0
2019-01-12T16:53:42.718Z,0
2019-01-12T16:54:52.878Z,0
2019-01-12T16:56:03.682Z,0
2019-01-12T16:57:13.846Z,0
2019-01-12T16:58:30.136Z,0
2019-01-12T16:59:40.557Z,0